sensor_id;sensor_type;location;lat;lon;timestamp;P1;durP1;ratioP1;P2;durP2;ratioP2
78120;SDS011;67585;44.802;10.332;2024-02-04T00:00:28;43.03;;;16.55;;
78120;SDS011;67585;44.802;10.332;2024-02-04T00:02:54;36.67;;;14.93;;
78120;SDS011;67585;44.802;10.332;2024-02-04T00:05:19;43.00;;;16.42;;
78120;SDS011;67585;44.802;10.332;2024-02-04T00:07:45;40.55;;;16.27;;
78120;SDS011;67585;44.802;10.332;2024-02-04T00:10:10;43.85;;;15.13;;
78120;SDS011;67585;44.802;10.332;2024-02-04T00:12:36;40.03;;;15.63;;
78120;SDS011;67585;44.802;10.332;2024-02-04T00:15:03;42.97;;;16.40;;
78120;SDS011;67585;44.802;10.332;2024-02-04T00:17:31;45.40;;;17.27;;
78120;SDS011;67585;44.802;10.332;2024-02-04T00:19:59;40.85;;;17.15;;
78120;SDS011;67585;44.802;10.332;2024-02-04T00:22:26;42.28;;;16.23;;
78120;SDS011;67585;44.802;10.332;2024-02-04T00:24:51;45.97;;;15.52;;
78120;SDS011;67585;44.802;10.332;2024-02-04T00:27:16;42.40;;;14.93;;
78120;SDS011;67585;44.802;10.332;2024-02-04T00:29:42;41.67;;;16.10;;
78120;SDS011;67585;44.802;10.332;2024-02-04T00:32:07;39.20;;;14.98;;
78120;SDS011;67585;44.802;10.332;2024-02-04T00:34:33;36.88;;;14.07;;
78120;SDS011;67585;44.802;10.332;2024-02-04T00:36:58;39.10;;;14.68;;
78120;SDS011;67585;44.802;10.332;2024-02-04T00:39:25;39.50;;;13.65;;
78120;SDS011;67585;44.802;10.332;2024-02-04T00:41:50;33.13;;;13.38;;
78120;SDS011;67585;44.802;10.332;2024-02-04T00:44:16;34.58;;;12.98;;
78120;SDS011;67585;44.802;10.332;2024-02-04T00:46:41;34.17;;;12.55;;
78120;SDS011;67585;44.802;10.332;2024-02-04T00:49:07;37.65;;;12.55;;
78120;SDS011;67585;44.802;10.332;2024-02-04T00:51:32;33.42;;;12.80;;
78120;SDS011;67585;44.802;10.332;2024-02-04T00:53:57;34.47;;;13.73;;
78120;SDS011;67585;44.802;10.332;2024-02-04T00:56:23;33.13;;;12.55;;
78120;SDS011;67585;44.802;10.332;2024-02-04T00:58:48;28.90;;;11.57;;
78120;SDS011;67585;44.802;10.332;2024-02-04T01:01:14;31.67;;;11.50;;
78120;SDS011;67585;44.802;10.332;2024-02-04T01:03:39;29.17;;;11.25;;
78120;SDS011;67585;44.802;10.332;2024-02-04T01:06:04;26.38;;;10.65;;
78120;SDS011;67585;44.802;10.332;2024-02-04T01:08:30;32.58;;;9.30;;
78120;SDS011;67585;44.802;10.332;2024-02-04T01:10:55;30.45;;;11.93;;
78120;SDS011;67585;44.802;10.332;2024-02-04T01:13:20;24.95;;;9.80;;
78120;SDS011;67585;44.802;10.332;2024-02-04T01:15:46;23.67;;;9.30;;
78120;SDS011;67585;44.802;10.332;2024-02-04T01:18:11;31.00;;;11.18;;
78120;SDS011;67585;44.802;10.332;2024-02-04T01:20:37;27.25;;;9.73;;
78120;SDS011;67585;44.802;10.332;2024-02-04T01:23:02;31.42;;;9.88;;
78120;SDS011;67585;44.802;10.332;2024-02-04T01:25:27;25.50;;;8.82;;
78120;SDS011;67585;44.802;10.332;2024-02-04T01:27:53;31.00;;;9.57;;
78120;SDS011;67585;44.802;10.332;2024-02-04T01:30:18;21.58;;;8.60;;
78120;SDS011;67585;44.802;10.332;2024-02-04T01:32:43;31.95;;;10.23;;
78120;SDS011;67585;44.802;10.332;2024-02-04T01:35:10;25.15;;;8.30;;
78120;SDS011;67585;44.802;10.332;2024-02-04T01:37:35;32.13;;;10.68;;
78120;SDS011;67585;44.802;10.332;2024-02-04T01:40:00;30.40;;;10.75;;
78120;SDS011;67585;44.802;10.332;2024-02-04T01:42:26;26.38;;;10.70;;
78120;SDS011;67585;44.802;10.332;2024-02-04T01:44:51;26.48;;;10.60;;
78120;SDS011;67585;44.802;10.332;2024-02-04T01:47:17;23.65;;;10.52;;
78120;SDS011;67585;44.802;10.332;2024-02-04T01:49:43;27.02;;;8.82;;
78120;SDS011;67585;44.802;10.332;2024-02-04T01:52:08;28.92;;;10.70;;
78120;SDS011;67585;44.802;10.332;2024-02-04T01:54:36;28.48;;;10.57;;
78120;SDS011;67585;44.802;10.332;2024-02-04T01:57:03;26.30;;;10.82;;
78120;SDS011;67585;44.802;10.332;2024-02-04T01:59:29;27.25;;;10.25;;
78120;SDS011;67585;44.802;10.332;2024-02-04T02:01:57;30.25;;;11.45;;
78120;SDS011;67585;44.802;10.332;2024-02-04T02:04:26;25.42;;;10.73;;
78120;SDS011;67585;44.802;10.332;2024-02-04T02:06:55;25.05;;;10.10;;
78120;SDS011;67585;44.802;10.332;2024-02-04T02:09:20;26.55;;;9.93;;
78120;SDS011;67585;44.802;10.332;2024-02-04T02:14:18;21.92;;;9.60;;
78120;SDS011;67585;44.802;10.332;2024-02-04T02:16:48;25.05;;;8.95;;
78120;SDS011;67585;44.802;10.332;2024-02-04T02:22:23;22.98;;;10.05;;
78120;SDS011;67585;44.802;10.332;2024-02-04T02:24:51;24.17;;;9.88;;
78120;SDS011;67585;44.802;10.332;2024-02-04T02:27:18;23.60;;;9.38;;
78120;SDS011;67585;44.802;10.332;2024-02-04T02:29:44;28.23;;;8.55;;
78120;SDS011;67585;44.802;10.332;2024-02-04T02:32:09;31.85;;;9.85;;
78120;SDS011;67585;44.802;10.332;2024-02-04T02:34:35;23.83;;;9.77;;
78120;SDS011;67585;44.802;10.332;2024-02-04T02:39:38;23.30;;;9.27;;
78120;SDS011;67585;44.802;10.332;2024-02-04T02:42:07;24.05;;;8.75;;
78120;SDS011;67585;44.802;10.332;2024-02-04T02:44:35;24.52;;;9.10;;
78120;SDS011;67585;44.802;10.332;2024-02-04T02:47:03;25.27;;;9.45;;
78120;SDS011;67585;44.802;10.332;2024-02-04T02:49:30;23.55;;;9.10;;
78120;SDS011;67585;44.802;10.332;2024-02-04T02:51:55;24.05;;;8.07;;
78120;SDS011;67585;44.802;10.332;2024-02-04T02:54:21;22.77;;;8.32;;
78120;SDS011;67585;44.802;10.332;2024-02-04T02:56:46;22.73;;;8.88;;
78120;SDS011;67585;44.802;10.332;2024-02-04T02:59:11;22.17;;;8.98;;
78120;SDS011;67585;44.802;10.332;2024-02-04T03:01:40;24.75;;;8.75;;
78120;SDS011;67585;44.802;10.332;2024-02-04T03:04:05;19.02;;;7.30;;
78120;SDS011;67585;44.802;10.332;2024-02-04T03:06:31;24.63;;;8.65;;
78120;SDS011;67585;44.802;10.332;2024-02-04T03:08:56;23.48;;;8.75;;
78120;SDS011;67585;44.802;10.332;2024-02-04T03:11:22;21.63;;;7.88;;
78120;SDS011;67585;44.802;10.332;2024-02-04T03:13:47;23.85;;;10.18;;
78120;SDS011;67585;44.802;10.332;2024-02-04T03:16:12;22.05;;;7.55;;
78120;SDS011;67585;44.802;10.332;2024-02-04T03:18:41;21.92;;;8.13;;
78120;SDS011;67585;44.802;10.332;2024-02-04T03:21:13;22.55;;;9.93;;
78120;SDS011;67585;44.802;10.332;2024-02-04T03:23:43;22.70;;;8.57;;
78120;SDS011;67585;44.802;10.332;2024-02-04T03:26:09;18.50;;;7.63;;
78120;SDS011;67585;44.802;10.332;2024-02-04T03:28:35;19.65;;;7.13;;
78120;SDS011;67585;44.802;10.332;2024-02-04T03:31:01;18.90;;;8.02;;
78120;SDS011;67585;44.802;10.332;2024-02-04T03:33:26;24.88;;;9.68;;
78120;SDS011;67585;44.802;10.332;2024-02-04T03:35:52;20.30;;;8.20;;
78120;SDS011;67585;44.802;10.332;2024-02-04T03:38:17;20.67;;;8.80;;
78120;SDS011;67585;44.802;10.332;2024-02-04T03:40:42;21.35;;;8.77;;
78120;SDS011;67585;44.802;10.332;2024-02-04T03:43:10;21.23;;;8.18;;
78120;SDS011;67585;44.802;10.332;2024-02-04T03:45:35;22.60;;;9.40;;
78120;SDS011;67585;44.802;10.332;2024-02-04T03:48:01;27.73;;;9.98;;
78120;SDS011;67585;44.802;10.332;2024-02-04T03:50:27;30.08;;;9.50;;
78120;SDS011;67585;44.802;10.332;2024-02-04T03:52:52;23.55;;;7.90;;
78120;SDS011;67585;44.802;10.332;2024-02-04T03:55:18;21.75;;;8.63;;
78120;SDS011;67585;44.802;10.332;2024-02-04T03:57:43;23.92;;;10.85;;
78120;SDS011;67585;44.802;10.332;2024-02-04T04:00:09;25.17;;;10.60;;
78120;SDS011;67585;44.802;10.332;2024-02-04T04:02:35;28.35;;;12.70;;
78120;SDS011;67585;44.802;10.332;2024-02-04T04:05:00;28.17;;;10.93;;
78120;SDS011;67585;44.802;10.332;2024-02-04T04:07:26;25.48;;;11.00;;
78120;SDS011;67585;44.802;10.332;2024-02-04T04:09:51;31.40;;;9.13;;
78120;SDS011;67585;44.802;10.332;2024-02-04T04:12:16;22.45;;;8.23;;
78120;SDS011;67585;44.802;10.332;2024-02-04T04:14:42;26.08;;;9.30;;
78120;SDS011;67585;44.802;10.332;2024-02-04T04:17:07;24.15;;;8.00;;
78120;SDS011;67585;44.802;10.332;2024-02-04T04:19:32;25.27;;;7.82;;
78120;SDS011;67585;44.802;10.332;2024-02-04T04:22:00;22.30;;;8.02;;
78120;SDS011;67585;44.802;10.332;2024-02-04T04:24:27;20.40;;;6.50;;
78120;SDS011;67585;44.802;10.332;2024-02-04T04:26:52;20.35;;;6.90;;
78120;SDS011;67585;44.802;10.332;2024-02-04T04:29:17;20.02;;;7.18;;
78120;SDS011;67585;44.802;10.332;2024-02-04T04:31:43;15.68;;;4.32;;
78120;SDS011;67585;44.802;10.332;2024-02-04T04:34:08;16.58;;;5.82;;
78120;SDS011;67585;44.802;10.332;2024-02-04T04:36:33;17.33;;;6.63;;
78120;SDS011;67585;44.802;10.332;2024-02-04T04:38:59;15.00;;;5.82;;
78120;SDS011;67585;44.802;10.332;2024-02-04T04:41:24;18.55;;;6.30;;
78120;SDS011;67585;44.802;10.332;2024-02-04T04:43:50;16.35;;;5.93;;
78120;SDS011;67585;44.802;10.332;2024-02-04T04:46:15;16.85;;;5.70;;
78120;SDS011;67585;44.802;10.332;2024-02-04T04:48:41;15.52;;;5.63;;
78120;SDS011;67585;44.802;10.332;2024-02-04T04:51:10;21.83;;;6.97;;
78120;SDS011;67585;44.802;10.332;2024-02-04T04:53:36;17.63;;;6.63;;
78120;SDS011;67585;44.802;10.332;2024-02-04T04:56:02;20.98;;;7.50;;
78120;SDS011;67585;44.802;10.332;2024-02-04T04:58:27;16.65;;;6.20;;
78120;SDS011;67585;44.802;10.332;2024-02-04T05:00:53;22.65;;;7.93;;
78120;SDS011;67585;44.802;10.332;2024-02-04T05:03:18;23.83;;;8.05;;
78120;SDS011;67585;44.802;10.332;2024-02-04T05:05:43;25.05;;;9.65;;
78120;SDS011;67585;44.802;10.332;2024-02-04T05:08:10;26.73;;;9.18;;
78120;SDS011;67585;44.802;10.332;2024-02-04T05:10:35;21.83;;;9.40;;
78120;SDS011;67585;44.802;10.332;2024-02-04T05:13:00;26.48;;;10.32;;
78120;SDS011;67585;44.802;10.332;2024-02-04T05:15:26;24.40;;;9.63;;
78120;SDS011;67585;44.802;10.332;2024-02-04T05:17:51;26.08;;;9.50;;
78120;SDS011;67585;44.802;10.332;2024-02-04T05:20:16;24.38;;;8.43;;
78120;SDS011;67585;44.802;10.332;2024-02-04T05:22:42;26.50;;;9.80;;
78120;SDS011;67585;44.802;10.332;2024-02-04T05:25:07;23.77;;;8.82;;
78120;SDS011;67585;44.802;10.332;2024-02-04T05:27:34;24.42;;;9.55;;
78120;SDS011;67585;44.802;10.332;2024-02-04T05:30:01;22.88;;;9.13;;
78120;SDS011;67585;44.802;10.332;2024-02-04T05:32:27;28.38;;;9.88;;
78120;SDS011;67585;44.802;10.332;2024-02-04T05:34:52;22.90;;;9.48;;
78120;SDS011;67585;44.802;10.332;2024-02-04T05:37:18;19.17;;;8.75;;
78120;SDS011;67585;44.802;10.332;2024-02-04T05:39:43;22.65;;;9.07;;
78120;SDS011;67585;44.802;10.332;2024-02-04T05:42:08;22.60;;;9.35;;
78120;SDS011;67585;44.802;10.332;2024-02-04T05:44:34;24.77;;;8.35;;
78120;SDS011;67585;44.802;10.332;2024-02-04T05:46:59;21.73;;;8.57;;
78120;SDS011;67585;44.802;10.332;2024-02-04T05:49:24;24.30;;;8.75;;
78120;SDS011;67585;44.802;10.332;2024-02-04T05:51:50;24.15;;;9.13;;
78120;SDS011;67585;44.802;10.332;2024-02-04T05:54:15;28.10;;;8.77;;
78120;SDS011;67585;44.802;10.332;2024-02-04T05:56:41;23.48;;;8.63;;
78120;SDS011;67585;44.802;10.332;2024-02-04T05:59:06;21.70;;;8.02;;
78120;SDS011;67585;44.802;10.332;2024-02-04T06:01:31;20.65;;;8.50;;
78120;SDS011;67585;44.802;10.332;2024-02-04T06:03:58;18.13;;;7.38;;
78120;SDS011;67585;44.802;10.332;2024-02-04T06:06:23;24.95;;;8.20;;
78120;SDS011;67585;44.802;10.332;2024-02-04T06:08:48;17.95;;;7.78;;
78120;SDS011;67585;44.802;10.332;2024-02-04T06:11:14;21.85;;;8.15;;
78120;SDS011;67585;44.802;10.332;2024-02-04T06:13:40;19.50;;;7.80;;
78120;SDS011;67585;44.802;10.332;2024-02-04T06:16:07;17.67;;;6.53;;
78120;SDS011;67585;44.802;10.332;2024-02-04T06:18:33;17.75;;;6.95;;
78120;SDS011;67585;44.802;10.332;2024-02-04T06:21:01;20.13;;;7.75;;
78120;SDS011;67585;44.802;10.332;2024-02-04T06:23:27;18.23;;;5.85;;
78120;SDS011;67585;44.802;10.332;2024-02-04T06:25:52;18.20;;;7.25;;
78120;SDS011;67585;44.802;10.332;2024-02-04T06:28:17;18.58;;;6.68;;
78120;SDS011;67585;44.802;10.332;2024-02-04T06:30:43;16.58;;;6.68;;
78120;SDS011;67585;44.802;10.332;2024-02-04T06:33:08;18.13;;;7.13;;
78120;SDS011;67585;44.802;10.332;2024-02-04T06:35:33;17.20;;;5.93;;
78120;SDS011;67585;44.802;10.332;2024-02-04T06:37:59;15.20;;;6.15;;
78120;SDS011;67585;44.802;10.332;2024-02-04T06:40:24;19.20;;;6.45;;
78120;SDS011;67585;44.802;10.332;2024-02-04T06:42:50;19.05;;;5.57;;
78120;SDS011;67585;44.802;10.332;2024-02-04T06:45:15;17.15;;;5.47;;
78120;SDS011;67585;44.802;10.332;2024-02-04T06:47:43;16.30;;;6.18;;
78120;SDS011;67585;44.802;10.332;2024-02-04T06:50:10;16.38;;;6.95;;
78120;SDS011;67585;44.802;10.332;2024-02-04T06:52:39;17.10;;;6.65;;
78120;SDS011;67585;44.802;10.332;2024-02-04T06:55:08;17.75;;;6.25;;
78120;SDS011;67585;44.802;10.332;2024-02-04T06:57:34;17.65;;;7.18;;
78120;SDS011;67585;44.802;10.332;2024-02-04T06:59:59;19.88;;;7.15;;
78120;SDS011;67585;44.802;10.332;2024-02-04T07:02:24;14.93;;;5.32;;
78120;SDS011;67585;44.802;10.332;2024-02-04T07:04:50;21.23;;;6.30;;
78120;SDS011;67585;44.802;10.332;2024-02-04T07:07:15;18.67;;;7.95;;
78120;SDS011;67585;44.802;10.332;2024-02-04T07:09:40;20.83;;;7.07;;
78120;SDS011;67585;44.802;10.332;2024-02-04T07:12:06;26.08;;;7.05;;
78120;SDS011;67585;44.802;10.332;2024-02-04T07:14:31;21.92;;;7.88;;
78120;SDS011;67585;44.802;10.332;2024-02-04T07:16:57;16.63;;;5.75;;
78120;SDS011;67585;44.802;10.332;2024-02-04T07:19:22;19.02;;;7.75;;
78120;SDS011;67585;44.802;10.332;2024-02-04T07:21:48;20.25;;;6.60;;
78120;SDS011;67585;44.802;10.332;2024-02-04T07:24:13;17.80;;;6.03;;
78120;SDS011;67585;44.802;10.332;2024-02-04T07:26:39;18.15;;;6.03;;
78120;SDS011;67585;44.802;10.332;2024-02-04T07:29:04;18.08;;;7.90;;
78120;SDS011;67585;44.802;10.332;2024-02-04T07:31:29;21.10;;;6.45;;
78120;SDS011;67585;44.802;10.332;2024-02-04T07:33:55;16.42;;;6.65;;
78120;SDS011;67585;44.802;10.332;2024-02-04T07:36:21;18.73;;;5.88;;
78120;SDS011;67585;44.802;10.332;2024-02-04T07:38:46;19.42;;;5.90;;
78120;SDS011;67585;44.802;10.332;2024-02-04T07:41:14;17.02;;;6.88;;
78120;SDS011;67585;44.802;10.332;2024-02-04T07:43:43;18.08;;;7.05;;
78120;SDS011;67585;44.802;10.332;2024-02-04T07:46:09;18.52;;;6.93;;
78120;SDS011;67585;44.802;10.332;2024-02-04T07:48:34;20.15;;;6.90;;
78120;SDS011;67585;44.802;10.332;2024-02-04T07:51:00;21.58;;;8.07;;
78120;SDS011;67585;44.802;10.332;2024-02-04T07:53:25;18.67;;;7.82;;
78120;SDS011;67585;44.802;10.332;2024-02-04T07:55:50;17.25;;;6.80;;
78120;SDS011;67585;44.802;10.332;2024-02-04T07:58:16;20.35;;;7.13;;
78120;SDS011;67585;44.802;10.332;2024-02-04T08:00:41;20.10;;;7.72;;
78120;SDS011;67585;44.802;10.332;2024-02-04T08:03:07;20.25;;;7.10;;
78120;SDS011;67585;44.802;10.332;2024-02-04T08:05:32;21.45;;;7.63;;
78120;SDS011;67585;44.802;10.332;2024-02-04T08:08:00;24.33;;;7.38;;
78120;SDS011;67585;44.802;10.332;2024-02-04T08:10:25;17.58;;;7.53;;
78120;SDS011;67585;44.802;10.332;2024-02-04T08:12:51;19.80;;;6.40;;
78120;SDS011;67585;44.802;10.332;2024-02-04T08:15:18;20.27;;;6.22;;
78120;SDS011;67585;44.802;10.332;2024-02-04T08:17:43;20.02;;;6.90;;
78120;SDS011;67585;44.802;10.332;2024-02-04T08:20:09;16.63;;;6.60;;
78120;SDS011;67585;44.802;10.332;2024-02-04T08:22:34;19.90;;;7.60;;
78120;SDS011;67585;44.802;10.332;2024-02-04T08:25:00;17.75;;;6.25;;
78120;SDS011;67585;44.802;10.332;2024-02-04T08:27:26;18.20;;;7.05;;
78120;SDS011;67585;44.802;10.332;2024-02-04T08:29:52;24.45;;;9.13;;
78120;SDS011;67585;44.802;10.332;2024-02-04T08:32:17;22.10;;;7.68;;
78120;SDS011;67585;44.802;10.332;2024-02-04T08:34:42;19.77;;;8.07;;
78120;SDS011;67585;44.802;10.332;2024-02-04T08:37:08;19.58;;;7.32;;
78120;SDS011;67585;44.802;10.332;2024-02-04T08:39:34;22.17;;;8.48;;
78120;SDS011;67585;44.802;10.332;2024-02-04T08:41:59;22.10;;;9.23;;
78120;SDS011;67585;44.802;10.332;2024-02-04T08:44:24;20.08;;;8.30;;
78120;SDS011;67585;44.802;10.332;2024-02-04T08:46:50;25.40;;;10.70;;
78120;SDS011;67585;44.802;10.332;2024-02-04T08:49:15;21.23;;;9.38;;
78120;SDS011;67585;44.802;10.332;2024-02-04T08:51:40;19.08;;;8.18;;
78120;SDS011;67585;44.802;10.332;2024-02-04T08:54:06;21.17;;;8.48;;
78120;SDS011;67585;44.802;10.332;2024-02-04T08:56:31;29.90;;;9.57;;
78120;SDS011;67585;44.802;10.332;2024-02-04T08:58:57;23.63;;;9.88;;
78120;SDS011;67585;44.802;10.332;2024-02-04T09:01:24;24.10;;;9.52;;
78120;SDS011;67585;44.802;10.332;2024-02-04T09:03:50;24.83;;;9.25;;
78120;SDS011;67585;44.802;10.332;2024-02-04T09:06:15;22.83;;;9.77;;
78120;SDS011;67585;44.802;10.332;2024-02-04T09:08:41;25.42;;;10.90;;
78120;SDS011;67585;44.802;10.332;2024-02-04T09:11:06;26.33;;;11.48;;
78120;SDS011;67585;44.802;10.332;2024-02-04T09:13:31;25.48;;;10.65;;
78120;SDS011;67585;44.802;10.332;2024-02-04T09:15:57;26.65;;;10.23;;
78120;SDS011;67585;44.802;10.332;2024-02-04T09:18:22;28.65;;;12.07;;
78120;SDS011;67585;44.802;10.332;2024-02-04T09:20:47;23.15;;;9.70;;
78120;SDS011;67585;44.802;10.332;2024-02-04T09:23:13;21.98;;;10.80;;
78120;SDS011;67585;44.802;10.332;2024-02-04T09:25:38;24.33;;;10.68;;
78120;SDS011;67585;44.802;10.332;2024-02-04T09:28:04;30.73;;;12.00;;
78120;SDS011;67585;44.802;10.332;2024-02-04T09:30:29;28.42;;;10.93;;
78120;SDS011;67585;44.802;10.332;2024-02-04T09:32:55;29.83;;;13.10;;
78120;SDS011;67585;44.802;10.332;2024-02-04T09:35:20;26.70;;;12.35;;
78120;SDS011;67585;44.802;10.332;2024-02-04T09:37:46;32.00;;;13.27;;
78120;SDS011;67585;44.802;10.332;2024-02-04T09:40:11;31.42;;;14.30;;
78120;SDS011;67585;44.802;10.332;2024-02-04T09:42:37;31.20;;;13.55;;
78120;SDS011;67585;44.802;10.332;2024-02-04T09:45:03;38.83;;;14.15;;
78120;SDS011;67585;44.802;10.332;2024-02-04T09:47:29;33.55;;;15.32;;
78120;SDS011;67585;44.802;10.332;2024-02-04T09:49:57;38.17;;;18.25;;
78120;SDS011;67585;44.802;10.332;2024-02-04T09:52:26;42.00;;;15.15;;
78120;SDS011;67585;44.802;10.332;2024-02-04T09:55:01;39.38;;;16.85;;
78120;SDS011;67585;44.802;10.332;2024-02-04T09:57:30;37.03;;;16.00;;
78120;SDS011;67585;44.802;10.332;2024-02-04T09:59:59;35.78;;;15.10;;
78120;SDS011;67585;44.802;10.332;2024-02-04T10:02:24;34.55;;;15.60;;
78120;SDS011;67585;44.802;10.332;2024-02-04T10:04:50;36.08;;;14.45;;
78120;SDS011;67585;44.802;10.332;2024-02-04T10:07:16;43.63;;;16.40;;
78120;SDS011;67585;44.802;10.332;2024-02-04T10:09:43;37.70;;;16.55;;
78120;SDS011;67585;44.802;10.332;2024-02-04T10:12:09;37.05;;;15.35;;
78120;SDS011;67585;44.802;10.332;2024-02-04T10:14:35;36.63;;;14.80;;
78120;SDS011;67585;44.802;10.332;2024-02-04T10:17:00;33.38;;;15.32;;
78120;SDS011;67585;44.802;10.332;2024-02-04T10:19:26;39.67;;;15.60;;
78120;SDS011;67585;44.802;10.332;2024-02-04T10:22:01;32.83;;;15.20;;
78120;SDS011;67585;44.802;10.332;2024-02-04T10:24:28;39.35;;;16.00;;
78120;SDS011;67585;44.802;10.332;2024-02-04T10:26:56;37.25;;;14.93;;
78120;SDS011;67585;44.802;10.332;2024-02-04T10:29:22;38.75;;;17.75;;
78120;SDS011;67585;44.802;10.332;2024-02-04T10:31:52;30.08;;;14.00;;
78120;SDS011;67585;44.802;10.332;2024-02-04T10:34:19;33.88;;;14.20;;
78120;SDS011;67585;44.802;10.332;2024-02-04T10:36:44;31.80;;;14.23;;
78120;SDS011;67585;44.802;10.332;2024-02-04T10:39:10;41.45;;;15.02;;
78120;SDS011;67585;44.802;10.332;2024-02-04T10:41:35;33.55;;;15.52;;
78120;SDS011;67585;44.802;10.332;2024-02-04T10:44:08;35.80;;;14.82;;
78120;SDS011;67585;44.802;10.332;2024-02-04T10:46:36;34.38;;;15.25;;
78120;SDS011;67585;44.802;10.332;2024-02-04T10:49:04;34.97;;;15.52;;
78120;SDS011;67585;44.802;10.332;2024-02-04T10:51:35;33.83;;;14.68;;
78120;SDS011;67585;44.802;10.332;2024-02-04T10:54:01;35.50;;;15.20;;
78120;SDS011;67585;44.802;10.332;2024-02-04T10:59:09;38.00;;;17.98;;
78120;SDS011;67585;44.802;10.332;2024-02-04T11:01:40;32.65;;;16.45;;
78120;SDS011;67585;44.802;10.332;2024-02-04T11:04:06;38.00;;;18.35;;
78120;SDS011;67585;44.802;10.332;2024-02-04T11:06:36;33.90;;;16.85;;
78120;SDS011;67585;44.802;10.332;2024-02-04T11:09:03;36.80;;;16.95;;
78120;SDS011;67585;44.802;10.332;2024-02-04T11:11:32;41.22;;;18.52;;
78120;SDS011;67585;44.802;10.332;2024-02-04T11:14:00;34.35;;;17.52;;
78120;SDS011;67585;44.802;10.332;2024-02-04T11:22:01;44.13;;;17.73;;
78120;SDS011;67585;44.802;10.332;2024-02-04T11:27:40;34.92;;;16.65;;
78120;SDS011;67585;44.802;10.332;2024-02-04T11:30:06;38.10;;;16.25;;
78120;SDS011;67585;44.802;10.332;2024-02-04T11:32:34;42.47;;;18.85;;
78120;SDS011;67585;44.802;10.332;2024-02-04T11:35:00;34.40;;;17.25;;
78120;SDS011;67585;44.802;10.332;2024-02-04T11:37:27;38.33;;;18.23;;
78120;SDS011;67585;44.802;10.332;2024-02-04T11:39:54;43.03;;;17.52;;
78120;SDS011;67585;44.802;10.332;2024-02-04T11:42:23;37.58;;;16.33;;
78120;SDS011;67585;44.802;10.332;2024-02-04T11:44:49;37.30;;;17.00;;
78120;SDS011;67585;44.802;10.332;2024-02-04T11:47:24;38.35;;;16.85;;
78120;SDS011;67585;44.802;10.332;2024-02-04T11:49:54;34.88;;;17.48;;
78120;SDS011;67585;44.802;10.332;2024-02-04T11:52:20;38.72;;;15.30;;
78120;SDS011;67585;44.802;10.332;2024-02-04T11:54:46;38.90;;;14.85;;
78120;SDS011;67585;44.802;10.332;2024-02-04T11:57:12;36.20;;;17.08;;
78120;SDS011;67585;44.802;10.332;2024-02-04T11:59:39;32.78;;;15.18;;
78120;SDS011;67585;44.802;10.332;2024-02-04T12:02:07;38.13;;;16.27;;
78120;SDS011;67585;44.802;10.332;2024-02-04T12:04:33;35.63;;;17.17;;
78120;SDS011;67585;44.802;10.332;2024-02-04T12:06:59;35.97;;;16.20;;
78120;SDS011;67585;44.802;10.332;2024-02-04T12:09:26;35.13;;;16.40;;
78120;SDS011;67585;44.802;10.332;2024-02-04T12:11:51;36.95;;;16.10;;
78120;SDS011;67585;44.802;10.332;2024-02-04T12:14:19;32.70;;;14.40;;
78120;SDS011;67585;44.802;10.332;2024-02-04T12:16:44;37.15;;;16.85;;
78120;SDS011;67585;44.802;10.332;2024-02-04T12:19:10;32.28;;;16.98;;
78120;SDS011;67585;44.802;10.332;2024-02-04T12:21:36;42.28;;;15.85;;
78120;SDS011;67585;44.802;10.332;2024-02-04T12:24:02;30.35;;;14.65;;
78120;SDS011;67585;44.802;10.332;2024-02-04T12:26:28;36.72;;;16.60;;
78120;SDS011;67585;44.802;10.332;2024-02-04T12:28:54;36.35;;;15.50;;
78120;SDS011;67585;44.802;10.332;2024-02-04T12:31:20;39.45;;;15.57;;
78120;SDS011;67585;44.802;10.332;2024-02-04T12:33:53;34.55;;;15.35;;
78120;SDS011;67585;44.802;10.332;2024-02-04T12:36:22;34.17;;;14.88;;
78120;SDS011;67585;44.802;10.332;2024-02-04T12:38:55;34.38;;;14.20;;
78120;SDS011;67585;44.802;10.332;2024-02-04T12:41:22;32.72;;;15.20;;
78120;SDS011;67585;44.802;10.332;2024-02-04T12:43:58;34.65;;;16.00;;
78120;SDS011;67585;44.802;10.332;2024-02-04T12:46:25;33.58;;;14.35;;
78120;SDS011;67585;44.802;10.332;2024-02-04T12:48:51;34.42;;;14.52;;
78120;SDS011;67585;44.802;10.332;2024-02-04T12:51:27;31.60;;;15.00;;
78120;SDS011;67585;44.802;10.332;2024-02-04T12:54:09;34.08;;;15.00;;
78120;SDS011;67585;44.802;10.332;2024-02-04T12:56:46;32.63;;;15.38;;
78120;SDS011;67585;44.802;10.332;2024-02-04T12:59:32;32.03;;;14.60;;
78120;SDS011;67585;44.802;10.332;2024-02-04T13:02:02;31.30;;;14.63;;
78120;SDS011;67585;44.802;10.332;2024-02-04T13:04:47;34.60;;;13.93;;
78120;SDS011;67585;44.802;10.332;2024-02-04T13:07:13;33.17;;;15.27;;
78120;SDS011;67585;44.802;10.332;2024-02-04T13:09:41;31.90;;;14.32;;
78120;SDS011;67585;44.802;10.332;2024-02-04T13:12:08;29.70;;;13.40;;
78120;SDS011;67585;44.802;10.332;2024-02-04T13:14:34;31.85;;;15.68;;
78120;SDS011;67585;44.802;10.332;2024-02-04T13:17:02;33.05;;;15.23;;
78120;SDS011;67585;44.802;10.332;2024-02-04T13:19:46;27.70;;;13.68;;
78120;SDS011;67585;44.802;10.332;2024-02-04T13:22:11;30.95;;;14.00;;
78120;SDS011;67585;44.802;10.332;2024-02-04T13:24:39;33.78;;;15.68;;
78120;SDS011;67585;44.802;10.332;2024-02-04T13:27:04;37.78;;;16.35;;
78120;SDS011;67585;44.802;10.332;2024-02-04T13:29:31;36.15;;;15.02;;
78120;SDS011;67585;44.802;10.332;2024-02-04T13:31:56;33.55;;;15.45;;
78120;SDS011;67585;44.802;10.332;2024-02-04T13:34:22;34.92;;;16.13;;
78120;SDS011;67585;44.802;10.332;2024-02-04T13:36:48;32.20;;;14.30;;
78120;SDS011;67585;44.802;10.332;2024-02-04T13:39:13;34.53;;;13.57;;
78120;SDS011;67585;44.802;10.332;2024-02-04T13:41:39;30.38;;;14.13;;
78120;SDS011;67585;44.802;10.332;2024-02-04T13:44:05;36.63;;;13.90;;
78120;SDS011;67585;44.802;10.332;2024-02-04T13:46:34;34.15;;;15.25;;
78120;SDS011;67585;44.802;10.332;2024-02-04T13:48:59;29.00;;;14.48;;
78120;SDS011;67585;44.802;10.332;2024-02-04T13:51:25;33.78;;;15.55;;
78120;SDS011;67585;44.802;10.332;2024-02-04T13:53:50;33.10;;;14.05;;
78120;SDS011;67585;44.802;10.332;2024-02-04T13:56:16;31.02;;;13.38;;
78120;SDS011;67585;44.802;10.332;2024-02-04T13:58:43;29.48;;;13.57;;
78120;SDS011;67585;44.802;10.332;2024-02-04T14:01:09;34.53;;;14.25;;
78120;SDS011;67585;44.802;10.332;2024-02-04T14:03:35;36.58;;;14.02;;
78120;SDS011;67585;44.802;10.332;2024-02-04T14:06:03;30.30;;;13.35;;
78120;SDS011;67585;44.802;10.332;2024-02-04T14:08:29;31.85;;;14.25;;
78120;SDS011;67585;44.802;10.332;2024-02-04T14:10:55;32.60;;;14.45;;
78120;SDS011;67585;44.802;10.332;2024-02-04T14:13:20;32.67;;;15.70;;
78120;SDS011;67585;44.802;10.332;2024-02-04T14:15:46;35.50;;;15.55;;
78120;SDS011;67585;44.802;10.332;2024-02-04T14:18:11;30.98;;;15.13;;
78120;SDS011;67585;44.802;10.332;2024-02-04T14:20:37;28.98;;;14.02;;
78120;SDS011;67585;44.802;10.332;2024-02-04T14:23:02;32.40;;;15.55;;
78120;SDS011;67585;44.802;10.332;2024-02-04T14:25:28;32.08;;;13.75;;
78120;SDS011;67585;44.802;10.332;2024-02-04T14:27:53;34.40;;;14.63;;
78120;SDS011;67585;44.802;10.332;2024-02-04T14:30:19;30.60;;;15.25;;